Time;durP1;ratioP1;P1;durP2;ratioP2;P2;SDS_P1;SDS_P2;PMS_P1;PMS_P2;Temp;Humidity;BMP_temperature;BMP_pressure;BME280_temperature;BME280_humidity;BME280_pressure;Samples;Min_cycle;Max_cycle;Signal;HPM_P1;HPM_P2
2022/05/17 00:02:36;;;;;;;;;;;23.80;49.50;;;;;;6181588;28;20845;-51
2022/05/17 00:05:37;;;;;;;;;;;24.20;50.30;;;;;;6180553;28;19940;-50
2022/05/17 00:08:39;;;;;;;;;;;24.00;50.20;;;;;;6182344;28;20099;-53
2022/05/17 00:11:40;;;;;;;;;;;23.70;50.10;;;;;;6180364;28;19925;-50
2022/05/17 00:14:42;;;;;;;;;;;23.70;50.10;;;;;;6180203;28;20120;-50
2022/05/17 00:17:44;;;;;;;;;;;23.90;50.20;;;;;;6173800;28;19936;-53
2022/05/17 00:20:46;;;;;;;;;;;23.60;50.10;;;;;;6175940;28;19936;-53
2022/05/17 00:23:47;;;;;;;;;;;23.70;50.20;;;;;;6177008;28;20028;-52
2022/05/17 00:26:49;;;;;;;;;;;23.70;50.20;;;;;;6186318;28;20855;-50
2022/05/17 00:29:51;;;;;;;;;;;23.90;50.30;;;;;;6181771;28;19935;-52
2022/05/17 00:32:52;;;;;;;;;;;23.70;50.10;;;;;;6177066;28;19933;-51
2022/05/17 00:35:54;;;;;;;;;;;23.80;50.20;;;;;;6177679;28;19929;-51
2022/05/17 00:38:55;;;;;;;;;;;23.90;50.30;;;;;;6178194;28;19960;-51
2022/05/17 00:41:57;;;;;;;;;;;23.90;50.30;;;;;;6175638;28;20047;-53
2022/05/17 00:44:59;;;;;;;;;;;23.90;50.30;;;;;;6173012;28;20027;-51
2022/05/17 00:48:04;;;;;;;;;;;23.70;50.20;;;;;;6172648;28;20888;-53
2022/05/17 00:51:06;;;;;;;;;;;23.70;50.20;;;;;;6180201;28;20078;-53
2022/05/17 00:54:09;;;;;;;;;;;23.70;50.20;;;;;;6184857;28;19932;-55
2022/05/17 00:57:14;;;;;;;;;;;23.80;50.30;;;;;;6160661;28;20047;-51
2022/05/17 01:00:19;;;;;;;;;;;23.80;50.40;;;;;;6177285;28;19960;-54
2022/05/17 01:03:21;;;;;;;;;;;23.70;50.40;;;;;;6168591;28;20044;-54
2022/05/17 01:06:25;;;;;;;;;;;23.70;50.40;;;;;;6183556;28;20048;-54
2022/05/17 01:09:26;;;;;;;;;;;23.70;50.40;;;;;;6182641;28;19935;-53
2022/05/17 01:12:28;;;;;;;;;;;23.70;50.40;;;;;;6165059;28;19921;-54
2022/05/17 01:15:29;;;;;;;;;;;23.50;50.40;;;;;;6177277;28;19960;-54
2022/05/17 01:18:32;;;;;;;;;;;23.60;50.40;;;;;;6181116;28;19936;-55
2022/05/17 01:21:35;;;;;;;;;;;23.90;50.60;;;;;;6184141;28;19995;-55
2022/05/17 01:24:36;;;;;;;;;;;23.80;50.60;;;;;;6179634;28;20072;-55
2022/05/17 01:27:40;;;;;;;;;;;23.70;50.50;;;;;;6163957;28;20069;-54
2022/05/17 01:30:42;;;;;;;;;;;23.60;50.50;;;;;;6177943;28;19928;-52
2022/05/17 01:33:43;;;;;;;;;;;23.50;50.50;;;;;;6182234;28;19932;-54
2022/05/17 01:36:45;;;;;;;;;;;23.90;50.70;;;;;;6181167;28;21734;-55
2022/05/17 01:39:47;;;;;;;;;;;23.40;50.40;;;;;;6185189;28;19928;-53
2022/05/17 01:42:49;;;;;;;;;;;23.60;50.50;;;;;;6187233;28;19968;-54
2022/05/17 01:45:50;;;;;;;;;;;23.60;50.60;;;;;;6182895;28;19928;-54
2022/05/17 01:48:52;;;;;;;;;;;24.30;50.90;;;;;;6166267;28;20868;-54
2022/05/17 01:51:54;;;;;;;;;;;23.90;50.80;;;;;;6179591;28;20805;-53
2022/05/17 01:54:56;;;;;;;;;;;23.40;50.50;;;;;;6177125;28;20051;-53
2022/05/17 01:57:57;;;;;;;;;;;23.30;50.50;;;;;;6177987;28;20003;-54
2022/05/17 02:00:59;;;;;;;;;;;23.40;50.60;;;;;;6175935;28;19946;-55
2022/05/17 02:04:00;;;;;;;;;;;23.40;50.70;;;;;;6175591;28;20830;-52
2022/05/17 02:07:03;;;;;;;;;;;23.60;50.70;;;;;;6177406;28;19961;-54
2022/05/17 02:10:04;;;;;;;;;;;23.30;50.70;;;;;;6181089;28;20015;-54
2022/05/17 02:13:06;;;;;;;;;;;23.70;50.80;;;;;;6164487;28;20032;-52
2022/05/17 02:16:07;;;;;;;;;;;23.30;50.70;;;;;;6162935;28;20464;-53
2022/05/17 02:19:09;;;;;;;;;;;23.60;50.80;;;;;;6166794;28;20100;-49
2022/05/17 02:22:11;;;;;;;;;;;23.90;51.00;;;;;;6166979;28;20337;-55
2022/05/17 02:25:13;;;;;;;;;;;23.50;50.80;;;;;;6166196;28;20315;-52
2022/05/17 02:28:15;;;;;;;;;;;23.50;50.80;;;;;;6166523;28;19976;-54
2022/05/17 02:31:17;;;;;;;;;;;23.60;50.90;;;;;;6171197;28;20235;-53
2022/05/17 02:34:19;;;;;;;;;;;23.50;50.80;;;;;;6168574;28;20010;-54
2022/05/17 02:37:23;;;;;;;;;;;23.40;50.80;;;;;;6168154;28;19925;-50
2022/05/17 02:40:25;;;;;;;;;;;23.50;50.80;;;;;;6165665;28;20055;-52
2022/05/17 02:43:26;;;;;;;;;;;23.40;50.80;;;;;;6165248;28;20463;-51
2022/05/17 02:46:28;;;;;;;;;;;23.50;50.90;;;;;;6151403;28;19978;-52
2022/05/17 02:49:30;;;;;;;;;;;23.70;50.90;;;;;;6163261;28;20170;-52
2022/05/17 02:52:32;;;;;;;;;;;23.70;51.00;;;;;;6168416;28;20006;-53
2022/05/17 02:55:33;;;;;;;;;;;23.40;50.80;;;;;;6168082;28;19929;-54
2022/05/17 02:58:35;;;;;;;;;;;23.50;50.90;;;;;;6166479;28;20010;-55
2022/05/17 03:01:36;;;;;;;;;;;23.60;50.90;;;;;;6167365;28;19995;-53
2022/05/17 03:04:38;;;;;;;;;;;23.20;50.80;;;;;;6164311;28;20047;-53
2022/05/17 03:07:40;;;;;;;;;;;23.50;50.90;;;;;;6167844;28;20452;-50
2022/05/17 03:10:42;;;;;;;;;;;23.40;50.90;;;;;;6151927;28;20357;-53
2022/05/17 03:13:43;;;;;;;;;;;23.20;50.80;;;;;;6169555;28;20324;-53
2022/05/17 03:16:45;;;;;;;;;;;23.50;51.00;;;;;;6170762;28;19929;-52
2022/05/17 03:19:48;;;;;;;;;;;23.50;51.00;;;;;;6176650;28;19929;-54
2022/05/17 03:22:50;;;;;;;;;;;23.30;50.90;;;;;;6167889;28;20377;-55
2022/05/17 03:25:52;;;;;;;;;;;23.50;51.00;;;;;;6176193;28;19929;-54
2022/05/17 03:28:53;;;;;;;;;;;23.50;51.00;;;;;;6166296;28;19935;-52
2022/05/17 03:31:55;;;;;;;;;;;23.50;51.00;;;;;;6172569;28;19929;-54
2022/05/17 03:34:56;;;;;;;;;;;23.20;50.90;;;;;;6178211;28;19941;-52
2022/05/17 03:37:58;;;;;;;;;;;23.30;51.00;;;;;;6154704;28;19987;-53
2022/05/17 03:40:59;;;;;;;;;;;23.40;51.00;;;;;;6161171;28;20404;-53
2022/05/17 03:44:01;;;;;;;;;;;23.50;51.10;;;;;;6167504;28;20026;-51
2022/05/17 03:47:03;;;;;;;;;;;23.40;51.00;;;;;;6164690;28;20222;-52
2022/05/17 03:50:06;;;;;;;;;;;23.30;51.00;;;;;;6148730;28;20213;-52
2022/05/17 03:53:08;;;;;;;;;;;23.00;50.80;;;;;;6160493;28;20259;-50
2022/05/17 03:56:10;;;;;;;;;;;23.40;51.10;;;;;;6167866;28;20450;-54
2022/05/17 03:59:11;;;;;;;;;;;23.50;51.20;;;;;;6165048;28;21677;-50
2022/05/17 04:02:13;;;;;;;;;;;23.60;51.30;;;;;;6167098;28;19979;-49
2022/05/17 04:05:14;;;;;;;;;;;23.70;51.30;;;;;;6145857;28;19929;-54
2022/05/17 04:08:16;;;;;;;;;;;23.30;51.20;;;;;;6165520;28;19932;-54
2022/05/17 04:11:18;;;;;;;;;;;23.00;51.00;;;;;;6163448;28;20047;-50
2022/05/17 04:14:19;;;;;;;;;;;23.30;51.20;;;;;;6165773;28;20386;-53
2022/05/17 04:17:20;;;;;;;;;;;23.40;51.30;;;;;;6158456;28;20681;-50
2022/05/17 04:20:23;;;;;;;;;;;23.40;51.30;;;;;;6160948;28;20264;-55
2022/05/17 04:23:25;;;;;;;;;;;23.30;51.20;;;;;;6160490;28;20455;-54
2022/05/17 04:26:26;;;;;;;;;;;23.30;51.30;;;;;;6162900;28;20723;-54
2022/05/17 04:29:28;;;;;;;;;;;23.50;51.40;;;;;;6124616;28;19928;-51
2022/05/17 04:32:29;;;;;;;;;;;23.40;51.30;;;;;;6155881;28;19995;-53
2022/05/17 04:35:30;;;;;;;;;;;23.30;51.30;;;;;;6159497;28;20415;-53
2022/05/17 04:38:33;;;;;;;;;;;23.10;51.20;;;;;;6163180;28;20206;-51
2022/05/17 04:41:37;;;;;;;;;;;23.00;51.10;;;;;;6161597;28;20095;-51
2022/05/17 04:44:38;;;;;;;;;;;23.30;51.30;;;;;;6160204;28;20604;-49
2022/05/17 04:47:40;;;;;;;;;;;23.40;51.40;;;;;;6156330;28;19929;-49
2022/05/17 04:50:41;;;;;;;;;;;23.30;51.40;;;;;;6132954;28;19932;-52
2022/05/17 04:53:43;;;;;;;;;;;23.50;51.50;;;;;;6147059;28;20415;-50
2022/05/17 04:56:45;;;;;;;;;;;23.50;51.50;;;;;;6162252;28;20007;-52
2022/05/17 04:59:46;;;;;;;;;;;23.40;51.50;;;;;;6162466;28;20246;-52
2022/05/17 05:02:48;;;;;;;;;;;23.20;51.40;;;;;;6160201;28;20625;-54
2022/05/17 05:05:49;;;;;;;;;;;23.00;51.30;;;;;;6158311;28;19929;-49
2022/05/17 05:08:51;;;;;;;;;;;23.40;51.60;;;;;;6176562;28;20039;-55
2022/05/17 05:11:53;;;;;;;;;;;23.30;51.50;;;;;;6175818;28;20913;-53
2022/05/17 05:14:54;;;;;;;;;;;23.70;51.70;;;;;;6174199;28;20002;-50
2022/05/17 05:17:56;;;;;;;;;;;23.30;51.60;;;;;;6173365;28;19996;-54
2022/05/17 05:21:03;;;;;;;;;;;23.10;51.50;;;;;;6174266;28;21124;-54
2022/05/17 05:24:07;;;;;;;;;;;23.40;51.50;;;;;;6174586;28;19931;-54
2022/05/17 05:27:08;;;;;;;;;;;23.20;51.50;;;;;;6174356;28;20024;-55
2022/05/17 05:30:11;;;;;;;;;;;22.90;51.30;;;;;;6171500;28;21016;-54
2022/05/17 05:33:13;;;;;;;;;;;23.60;51.70;;;;;;6156216;28;21775;-53
2022/05/17 05:36:14;;;;;;;;;;;23.40;51.60;;;;;;6175336;28;19929;-55
2022/05/17 05:39:16;;;;;;;;;;;23.20;51.50;;;;;;6174009;28;20896;-53
2022/05/17 05:42:18;;;;;;;;;;;23.30;51.50;;;;;;6175185;28;21628;-55
2022/05/17 05:45:20;;;;;;;;;;;23.10;51.40;;;;;;6164356;28;20824;-51
2022/05/17 05:48:22;;;;;;;;;;;23.40;51.50;;;;;;6159664;28;20263;-52
2022/05/17 05:51:24;;;;;;;;;;;23.30;51.40;;;;;;6169751;28;19929;-51
2022/05/17 05:54:26;;;;;;;;;;;23.30;51.40;;;;;;6176265;28;19972;-54
2022/05/17 05:57:28;;;;;;;;;;;23.20;51.30;;;;;;6164394;28;22127;-51
2022/05/17 06:00:30;;;;;;;;;;;23.50;51.40;;;;;;6164869;28;19958;-55
2022/05/17 06:03:32;;;;;;;;;;;23.70;51.50;;;;;;6164227;28;19995;-55
2022/05/17 06:06:35;;;;;;;;;;;23.30;51.30;;;;;;6163181;28;20007;-52
2022/05/17 06:09:38;;;;;;;;;;;23.30;51.30;;;;;;6167977;28;19932;-52
2022/05/17 06:12:39;;;;;;;;;;;23.30;51.20;;;;;;6168867;28;20039;-53
2022/05/17 06:15:41;;;;;;;;;;;23.20;51.20;;;;;;6155824;28;20064;-56
2022/05/17 06:18:42;;;;;;;;;;;23.50;51.40;;;;;;6136793;28;20002;-55
2022/05/17 06:21:44;;;;;;;;;;;23.40;51.40;;;;;;6150965;28;19936;-52
2022/05/17 06:24:46;;;;;;;;;;;23.30;51.30;;;;;;6139269;28;19980;-54
2022/05/17 06:27:47;;;;;;;;;;;23.50;51.40;;;;;;6144102;28;19925;-55
2022/05/17 06:30:49;;;;;;;;;;;23.50;51.40;;;;;;6119971;28;19933;-54
2022/05/17 06:33:51;;;;;;;;;;;23.60;51.50;;;;;;6112231;28;20299;-54
2022/05/17 06:36:52;;;;;;;;;;;23.30;51.30;;;;;;6107042;28;21632;-54
2022/05/17 06:39:55;;;;;;;;;;;23.70;51.50;;;;;;6117358;28;20010;-55
2022/05/17 06:42:57;;;;;;;;;;;23.30;51.30;;;;;;6109713;28;20043;-55
2022/05/17 06:45:58;;;;;;;;;;;23.50;51.40;;;;;;6120598;28;19960;-52
2022/05/17 06:49:00;;;;;;;;;;;23.40;51.40;;;;;;6107867;28;19935;-54
2022/05/17 06:52:02;;;;;;;;;;;23.30;51.30;;;;;;6105638;28;19929;-56
2022/05/17 06:55:06;;;;;;;;;;;23.50;51.30;;;;;;6067338;28;19936;-54
2022/05/17 06:58:08;;;;;;;;;;;23.40;51.30;;;;;;6055935;28;19936;-55
2022/05/17 07:01:09;;;;;;;;;;;23.40;51.30;;;;;;6065375;28;19930;-54
2022/05/17 07:04:12;;;;;;;;;;;23.50;51.30;;;;;;6062031;28;19936;-56
2022/05/17 07:07:14;;;;;;;;;;;23.40;51.30;;;;;;6013824;28;19929;-54
2022/05/17 07:13:32;;;;;;;;;;;23.50;51.20;;;;;;5984828;28;20008;-54
2022/05/17 07:16:33;;;;;;;;;;;23.60;51.30;;;;;;6015597;28;19929;-51
2022/05/17 07:19:35;;;;;;;;;;;23.60;51.20;;;;;;6039384;28;21732;-52
2022/05/17 07:22:39;;;;;;;;;;;23.50;51.20;;;;;;6022683;28;24036;-51
2022/05/17 07:25:42;;;;;;;;;;;23.70;51.10;;;;;;6008426;28;31534;-52
2022/05/17 07:28:45;;;;;;;;;;;23.90;51.20;;;;;;6009905;28;20055;-53
2022/05/17 07:31:47;;;;;;;;;;;23.50;51.00;;;;;;5961214;28;22252;-54
2022/05/17 07:34:48;;;;;;;;;;;23.70;51.10;;;;;;5998796;28;19933;-54
2022/05/17 07:37:52;;;;;;;;;;;23.60;51.00;;;;;;6003025;28;19933;-54
2022/05/17 07:40:54;;;;;;;;;;;23.70;51.00;;;;;;5982633;28;19935;-54
2022/05/17 07:43:55;;;;;;;;;;;23.40;50.80;;;;;;6016862;28;19983;-52
2022/05/17 07:46:57;;;;;;;;;;;23.70;50.90;;;;;;5998376;28;19929;-51
2022/05/17 07:49:59;;;;;;;;;;;23.80;51.00;;;;;;5988108;28;19933;-55
2022/05/17 07:53:04;;;;;;;;;;;23.90;50.90;;;;;;5969753;28;19941;-51
2022/05/17 07:56:06;;;;;;;;;;;23.90;50.90;;;;;;5973791;28;24547;-53
2022/05/17 07:59:08;;;;;;;;;;;23.80;50.20;;;;;;5991553;28;20055;-56
2022/05/17 08:02:09;;;;;;;;;;;23.90;50.80;;;;;;5947862;28;19936;-55
2022/05/17 08:05:11;;;;;;;;;;;23.80;50.80;;;;;;5931709;28;19929;-55
2022/05/17 08:08:12;;;;;;;;;;;23.90;50.80;;;;;;5937214;28;20058;-52
2022/05/17 08:11:15;;;;;;;;;;;23.90;50.90;;;;;;5953156;28;20046;-56
2022/05/17 08:14:17;;;;;;;;;;;23.70;50.60;;;;;;5962811;28;19940;-52
2022/05/17 08:17:19;;;;;;;;;;;23.90;50.70;;;;;;5941540;28;19987;-53
2022/05/17 08:20:21;;;;;;;;;;;23.90;50.80;;;;;;5943242;28;19936;-55
2022/05/17 08:23:22;;;;;;;;;;;24.10;50.80;;;;;;5979664;28;21134;-50
2022/05/17 08:29:40;;;;;;;;;;;24.10;50.80;;;;;;5962441;28;19929;-55
2022/05/17 08:36:04;;;;;;;;;;;23.80;50.60;;;;;;5964431;28;20071;-52
2022/05/17 08:39:05;;;;;;;;;;;24.00;51.30;;;;;;5946539;28;20007;-51
2022/05/17 08:42:27;;;;;;;;;;;24.10;50.80;;;;;;5949658;28;19929;-52
2022/05/17 08:45:32;;;;;;;;;;;24.20;50.80;;;;;;5962266;28;19936;-56
2022/05/17 08:48:40;;;;;;;;;;;23.90;50.60;;;;;;5938126;28;21418;-53
2022/05/17 08:51:42;;;;;;;;;;;24.10;50.70;;;;;;5970868;28;19929;-53
2022/05/17 08:54:47;;;;;;;;;;;24.10;50.80;;;;;;5979913;28;19929;-52
2022/05/17 08:57:51;;;;;;;;;;;24.30;50.80;;;;;;5971977;28;19964;-53
2022/05/17 09:00:55;;;;;;;;;;;24.10;50.70;;;;;;5947859;28;19928;-52
2022/05/17 09:04:04;;;;;;;;;;;24.10;50.50;;;;;;5938298;28;19975;-57
2022/05/17 09:07:12;;;;;;;;;;;24.00;50.40;;;;;;5946409;28;19978;-57
2022/05/17 09:10:20;;;;;;;;;;;24.20;50.60;;;;;;5949067;28;19933;-53
2022/05/17 09:13:25;;;;;;;;;;;24.00;50.40;;;;;;5946433;28;22609;-55
2022/05/17 09:16:27;;;;;;;;;;;24.20;50.40;;;;;;6015033;28;21978;-56
2022/05/17 09:19:29;;;;;;;;;;;24.20;50.40;;;;;;5973334;28;19936;-52
2022/05/17 09:22:31;;;;;;;;;;;24.20;50.40;;;;;;5987285;28;19936;-54
2022/05/17 09:25:43;;;;;;;;;;;24.20;50.30;;;;;;5980380;28;19996;-56
2022/05/17 09:28:49;;;;;;;;;;;24.20;50.30;;;;;;5989671;28;19968;-56
2022/05/17 09:31:52;;;;;;;;;;;24.10;50.20;;;;;;5962090;28;19929;-54
2022/05/17 09:34:57;;;;;;;;;;;24.30;50.30;;;;;;5969858;28;19936;-54
2022/05/17 09:38:02;;;;;;;;;;;24.30;50.30;;;;;;5973503;28;19929;-53
2022/05/17 09:41:05;;;;;;;;;;;24.30;50.30;;;;;;5960133;28;20039;-52
2022/05/17 09:44:10;;;;;;;;;;;24.50;50.40;;;;;;5992957;28;20059;-54
2022/05/17 09:47:21;;;;;;;;;;;24.40;50.30;;;;;;5953228;28;20978;-58
2022/05/17 09:53:44;;;;;;;;;;;24.40;50.20;;;;;;6011916;28;20065;-52
2022/05/17 09:56:46;;;;;;;;;;;24.40;50.20;;;;;;5994262;28;19929;-52
2022/05/17 09:59:49;;;;;;;;;;;24.40;50.20;;;;;;5967643;28;25343;-51
2022/05/17 10:02:51;;;;;;;;;;;24.40;50.10;;;;;;5954170;28;21952;-54
2022/05/17 10:05:56;;;;;;;;;;;24.40;50.10;;;;;;5983132;28;19929;-53
2022/05/17 10:08:59;;;;;;;;;;;24.50;50.20;;;;;;5978454;28;19930;-52
2022/05/17 10:12:04;;;;;;;;;;;24.40;50.10;;;;;;6020782;28;19963;-54
2022/05/17 10:15:08;;;;;;;;;;;24.60;50.20;;;;;;5994258;28;19929;-56
2022/05/17 10:18:20;;;;;;;;;;;24.50;50.10;;;;;;6020354;28;19928;-56
2022/05/17 10:21:23;;;;;;;;;;;24.40;50.00;;;;;;6030369;28;20262;-52
2022/05/17 10:24:29;;;;;;;;;;;24.40;50.00;;;;;;6037937;28;20263;-54
2022/05/17 10:27:32;;;;;;;;;;;24.60;50.10;;;;;;6019747;28;21756;-55
2022/05/17 10:30:40;;;;;;;;;;;24.40;49.90;;;;;;5988168;28;20390;-55
2022/05/17 10:33:50;;;;;;;;;;;24.30;49.80;;;;;;6010578;28;20059;-54
2022/05/17 10:36:54;;;;;;;;;;;24.00;49.60;;;;;;6058410;28;19929;-54
2022/05/17 10:40:01;;;;;;;;;;;24.50;50.00;;;;;;6024671;28;19929;-53
2022/05/17 10:43:03;;;;;;;;;;;24.50;49.90;;;;;;6034463;28;20239;-53
2022/05/17 10:46:10;;;;;;;;;;;24.50;49.90;;;;;;6053349;28;20489;-55
2022/05/17 10:49:19;;;;;;;;;;;24.50;49.80;;;;;;6044929;28;20012;-57
2022/05/17 10:52:22;;;;;;;;;;;24.60;49.90;;;;;;6059793;28;19929;-54
2022/05/17 10:55:28;;;;;;;;;;;24.50;49.80;;;;;;6066717;28;19928;-53
2022/05/17 10:58:32;;;;;;;;;;;24.50;49.80;;;;;;6083482;28;20624;-55
2022/05/17 11:01:38;;;;;;;;;;;24.60;49.80;;;;;;6047490;28;19925;-53
2022/05/17 11:08:12;;;;;;;;;;;24.60;49.80;;;;;;6066549;28;19937;-52
2022/05/17 11:11:21;;;;;;;;;;;24.70;49.90;;;;;;6061415;28;19972;-56
2022/05/17 11:14:24;;;;;;;;;;;24.60;49.80;;;;;;6074466;28;19929;-55
2022/05/17 11:17:30;;;;;;;;;;;24.70;49.90;;;;;;6082272;28;19936;-53
2022/05/17 11:20:36;;;;;;;;;;;24.50;49.70;;;;;;6076117;28;19929;-54
2022/05/17 11:23:42;;;;;;;;;;;24.60;49.80;;;;;;6070756;28;19929;-51
2022/05/17 11:26:58;;;;;;;;;;;24.50;50.30;;;;;;6079364;28;22487;-52
2022/05/17 11:30:12;;;;;;;;;;;24.60;49.80;;;;;;6073625;28;19936;-51
2022/05/17 11:33:29;;;;;;;;;;;24.70;49.80;;;;;;6067464;28;19936;-55
2022/05/17 11:36:43;;;;;;;;;;;24.60;49.80;;;;;;6045398;28;19963;-52
2022/05/17 11:39:48;;;;;;;;;;;24.60;49.80;;;;;;6006806;28;20351;-55
2022/05/17 11:46:29;;;;;;;;;;;24.80;49.80;;;;;;6006922;28;20002;-54
2022/05/17 11:49:41;;;;;;;;;;;24.70;49.80;;;;;;6001063;28;19933;-56
2022/05/17 11:52:43;;;;;;;;;;;24.70;49.70;;;;;;6009625;28;19935;-54
2022/05/17 11:56:10;;;;;;;;;;;24.70;49.70;;;;;;5981246;28;19986;-54
2022/05/17 11:59:26;;;;;;;;;;;24.60;49.60;;;;;;6017271;28;19933;-55
2022/05/17 12:02:41;;;;;;;;;;;24.80;49.70;;;;;;5962493;28;19936;-50
2022/05/17 12:05:53;;;;;;;;;;;24.80;49.70;;;;;;5920721;28;19979;-55
2022/05/17 12:08:55;;;;;;;;;;;24.90;49.80;;;;;;5915264;28;20021;-55
2022/05/17 12:12:04;;;;;;;;;;;24.80;49.70;;;;;;5957247;28;19935;-50
2022/05/17 12:15:16;;;;;;;;;;;24.90;49.60;;;;;;5911365;28;19983;-53
2022/05/17 12:18:21;;;;;;;;;;;24.90;49.50;;;;;;5942812;28;19929;-53
2022/05/17 12:21:30;;;;;;;;;;;24.90;49.50;;;;;;5921467;28;20288;-52
2022/05/17 12:24:37;;;;;;;;;;;25.10;49.50;;;;;;5943857;28;19986;-52
2022/05/17 12:27:41;;;;;;;;;;;25.10;49.40;;;;;;5958218;28;22016;-50
2022/05/17 12:30:53;;;;;;;;;;;25.10;49.30;;;;;;5963722;28;20374;-54
2022/05/17 12:33:56;;;;;;;;;;;25.10;49.20;;;;;;5949795;28;19929;-52
2022/05/17 12:37:09;;;;;;;;;;;25.20;49.20;;;;;;5965436;28;19937;-55
2022/05/17 12:43:28;;;;;;;;;;;25.30;49.20;;;;;;5958395;28;19936;-54
2022/05/17 12:46:31;;;;;;;;;;;25.40;49.20;;;;;;5974469;28;20051;-52
2022/05/17 12:49:33;;;;;;;;;;;25.40;49.10;;;;;;5978303;28;19929;-50
2022/05/17 12:52:36;;;;;;;;;;;25.40;49.10;;;;;;5969355;28;21155;-54
2022/05/17 12:55:37;;;;;;;;;;;25.50;49.10;;;;;;5980232;28;19929;-52
2022/05/17 12:58:48;;;;;;;;;;;25.50;49.00;;;;;;5979749;28;19929;-55
2022/05/17 13:01:52;;;;;;;;;;;25.50;48.90;;;;;;5950223;28;19935;-54
2022/05/17 13:04:55;;;;;;;;;;;25.60;48.90;;;;;;5933361;28;19929;-51
2022/05/17 13:08:00;;;;;;;;;;;25.70;49.00;;;;;;5953184;28;19936;-49
2022/05/17 13:11:04;;;;;;;;;;;25.80;49.00;;;;;;5961078;28;19929;-52
2022/05/17 13:14:07;;;;;;;;;;;25.80;48.90;;;;;;5954392;28;20208;-54
2022/05/17 13:17:10;;;;;;;;;;;25.70;48.90;;;;;;5963386;28;19930;-52
2022/05/17 13:20:20;;;;;;;;;;;25.70;49.00;;;;;;6010965;28;21572;-56
2022/05/17 13:23:25;;;;;;;;;;;25.80;49.00;;;;;;5982801;28;19929;-52
2022/05/17 13:26:27;;;;;;;;;;;25.80;48.90;;;;;;5961613;28;20010;-54
2022/05/17 13:29:31;;;;;;;;;;;25.90;49.00;;;;;;5995698;28;20020;-54
2022/05/17 13:36:30;;;;;;;;;;;25.90;48.90;;;;;;5966776;28;19929;-54
2022/05/17 13:39:32;;;;;;;;;;;26.00;48.80;;;;;;5950526;28;20877;-53
2022/05/17 13:42:35;;;;;;;;;;;26.00;48.70;;;;;;5962861;28;20071;-57
2022/05/17 13:45:40;;;;;;;;;;;26.10;49.10;;;;;;5975028;28;20082;-51
2022/05/17 13:48:53;;;;;;;;;;;26.00;48.60;;;;;;5984330;28;19929;-56
2022/05/17 13:52:00;;;;;;;;;;;26.10;48.70;;;;;;5966443;28;19929;-52
2022/05/17 13:55:07;;;;;;;;;;;26.10;49.30;;;;;;5974880;28;19963;-54
2022/05/17 13:58:10;;;;;;;;;;;26.20;48.70;;;;;;5931916;28;34588;-53
2022/05/17 14:01:15;;;;;;;;;;;26.20;48.70;;;;;;5956579;28;19980;-54
2022/05/17 14:04:23;;;;;;;;;;;26.20;48.60;;;;;;5941884;28;20014;-52
2022/05/17 14:07:30;;;;;;;;;;;26.20;48.70;;;;;;5907479;28;19985;-56
2022/05/17 14:13:50;;;;;;;;;;;26.20;48.80;;;;;;5935090;28;21403;-54
2022/05/17 14:16:55;;;;;;;;;;;26.40;48.80;;;;;;5960727;28;19935;-54
2022/05/17 14:19:58;;;;;;;;;;;26.30;48.70;;;;;;5961446;28;20550;-55
2022/05/17 14:23:01;;;;;;;;;;;26.30;48.70;;;;;;5978940;28;19935;-56
2022/05/17 14:26:03;;;;;;;;;;;26.30;48.80;;;;;;5979722;28;20127;-57
2022/05/17 14:29:05;;;;;;;;;;;26.50;48.90;;;;;;5982241;28;21877;-56
2022/05/17 14:32:07;;;;;;;;;;;26.40;48.80;;;;;;5940424;28;20069;-54
2022/05/17 14:39:03;;;;;;;;;;;26.40;48.90;;;;;;6005678;28;21307;-54
2022/05/17 14:42:22;;;;;;;;;;;26.40;49.00;;;;;;5975693;28;19929;-54
2022/05/17 14:45:24;;;;;;;;;;;26.30;49.00;;;;;;5939866;28;19936;-52
2022/05/17 14:48:28;;;;;;;;;;;26.40;49.10;;;;;;5972541;28;21736;-52
2022/05/17 14:51:31;;;;;;;;;;;26.30;49.10;;;;;;5970318;28;19936;-53
2022/05/17 14:54:35;;;;;;;;;;;26.30;49.20;;;;;;5988610;28;19937;-54
2022/05/17 14:57:37;;;;;;;;;;;26.30;49.30;;;;;;5982706;28;23226;-59
2022/05/17 15:00:39;;;;;;;;;;;26.30;49.30;;;;;;5967499;28;21294;-52
2022/05/17 15:03:44;;;;;;;;;;;26.30;49.30;;;;;;5952983;28;19964;-55
2022/05/17 15:06:49;;;;;;;;;;;26.40;49.50;;;;;;5974045;28;19933;-56
2022/05/17 15:09:54;;;;;;;;;;;26.20;49.60;;;;;;5986060;28;19929;-57
2022/05/17 15:12:55;;;;;;;;;;;26.10;49.90;;;;;;5952413;28;19929;-51
2022/05/17 15:15:57;;;;;;;;;;;26.10;50.10;;;;;;5975178;28;20641;-54
2022/05/17 15:18:59;;;;;;;;;;;26.00;50.20;;;;;;6020866;28;19936;-55
2022/05/17 15:22:02;;;;;;;;;;;25.90;50.40;;;;;;6005572;28;19929;-55
2022/05/17 15:25:04;;;;;;;;;;;25.80;50.80;;;;;;5998243;28;20071;-55
2022/05/17 15:28:05;;;;;;;;;;;25.80;50.50;;;;;;5981842;28;20206;-54
2022/05/17 15:31:08;;;;;;;;;;;25.80;50.30;;;;;;5994470;28;19928;-56
2022/05/17 15:34:11;;;;;;;;;;;26.00;50.30;;;;;;5984922;28;19932;-53
2022/05/17 15:37:18;;;;;;;;;;;26.10;50.40;;;;;;5975257;28;19929;-54
2022/05/17 15:40:20;;;;;;;;;;;26.10;50.10;;;;;;6022104;28;19978;-51
2022/05/17 15:43:22;;;;;;;;;;;26.10;50.00;;;;;;6005613;28;19929;-53
2022/05/17 15:46:25;;;;;;;;;;;26.20;50.10;;;;;;6016876;28;19929;-53
2022/05/17 15:56:01;;;;;;;;;;;26.30;50.00;;;;;;6019183;28;19928;-54
2022/05/17 15:59:02;;;;;;;;;;;26.30;50.00;;;;;;6021382;28;20389;-54
2022/05/17 16:02:04;;;;;;;;;;;26.30;49.90;;;;;;6034914;28;20454;-54
2022/05/17 16:05:07;;;;;;;;;;;26.20;50.60;;;;;;6071074;28;19936;-54
2022/05/17 16:08:12;;;;;;;;;;;26.30;50.10;;;;;;6047289;28;21515;-51
2022/05/17 16:14:31;;;;;;;;;;;26.10;50.10;;;;;;6077555;28;19929;-57
2022/05/17 16:17:33;;;;;;;;;;;26.20;50.30;;;;;;6069952;28;19929;-59
2022/05/17 16:20:35;;;;;;;;;;;26.20;50.30;;;;;;6085694;28;19984;-54
2022/05/17 16:23:37;;;;;;;;;;;26.20;50.90;;;;;;6094554;28;19929;-56
2022/05/17 16:26:38;;;;;;;;;;;26.20;50.30;;;;;;6088823;28;19929;-53
2022/05/17 16:29:40;;;;;;;;;;;26.20;50.40;;;;;;6100317;28;19987;-51
2022/05/17 16:32:42;;;;;;;;;;;26.20;50.40;;;;;;6096185;28;21170;-56
2022/05/17 16:35:45;;;;;;;;;;;26.10;50.40;;;;;;6121042;28;19929;-53
2022/05/17 16:38:46;;;;;;;;;;;25.90;50.20;;;;;;6083203;28;22052;-55
2022/05/17 16:41:47;;;;;;;;;;;26.10;50.40;;;;;;6102622;28;19929;-53
2022/05/17 16:44:49;;;;;;;;;;;26.10;50.50;;;;;;6113345;28;20064;-54
2022/05/17 16:47:51;;;;;;;;;;;26.00;50.40;;;;;;6117811;28;19929;-53
2022/05/17 16:50:54;;;;;;;;;;;26.10;50.60;;;;;;6117175;28;19929;-51
2022/05/17 16:54:18;;;;;;;;;;;26.00;50.40;;;;;;6110575;28;19975;-54
2022/05/17 16:57:24;;;;;;;;;;;26.00;50.50;;;;;;6131943;28;20072;-55
2022/05/17 17:00:26;;;;;;;;;;;26.00;50.50;;;;;;6133791;28;19933;-56
2022/05/17 17:03:27;;;;;;;;;;;26.00;50.50;;;;;;6116081;28;20043;-54
2022/05/17 17:06:33;;;;;;;;;;;26.00;50.60;;;;;;6117305;28;19930;-56
2022/05/17 17:09:34;;;;;;;;;;;25.80;50.50;;;;;;6133053;28;19982;-54
2022/05/17 17:12:36;;;;;;;;;;;25.90;50.50;;;;;;6138051;28;21409;-57
2022/05/17 17:15:37;;;;;;;;;;;26.10;50.60;;;;;;6140531;28;19929;-53
2022/05/17 17:18:39;;;;;;;;;;;26.10;50.50;;;;;;6139437;28;20106;-56
2022/05/17 17:21:41;;;;;;;;;;;26.10;50.60;;;;;;6127113;28;20059;-56
2022/05/17 17:24:42;;;;;;;;;;;26.00;50.40;;;;;;6145915;28;20035;-55
2022/05/17 17:27:45;;;;;;;;;;;26.10;50.50;;;;;;6149681;28;19935;-54
2022/05/17 17:30:48;;;;;;;;;;;26.00;50.40;;;;;;6128530;28;20611;-55
2022/05/17 17:40:22;;;;;;;;;;;26.00;50.50;;;;;;6139484;28;19928;-55
2022/05/17 17:43:24;;;;;;;;;;;26.10;50.50;;;;;;6160893;28;19929;-56
2022/05/17 17:46:26;;;;;;;;;;;26.00;50.50;;;;;;6159469;28;21274;-53
2022/05/17 17:49:28;;;;;;;;;;;26.00;50.50;;;;;;6155663;28;19929;-56
2022/05/17 17:52:31;;;;;;;;;;;26.00;50.50;;;;;;6146715;28;20978;-55
2022/05/17 17:55:34;;;;;;;;;;;26.00;50.40;;;;;;6160045;28;19963;-56
2022/05/17 17:58:36;;;;;;;;;;;26.00;50.50;;;;;;6158441;28;19964;-54
2022/05/17 18:01:37;;;;;;;;;;;26.00;50.40;;;;;;6162304;28;19930;-54
2022/05/17 18:04:39;;;;;;;;;;;25.90;50.40;;;;;;6163578;28;21747;-55
2022/05/17 18:07:41;;;;;;;;;;;26.00;50.50;;;;;;6172659;28;19936;-53
2022/05/17 18:10:43;;;;;;;;;;;26.00;50.50;;;;;;6160557;28;20010;-57
2022/05/17 18:13:46;;;;;;;;;;;26.00;50.60;;;;;;6171776;28;19964;-54
2022/05/17 18:16:50;;;;;;;;;;;25.80;50.40;;;;;;6174912;28;19978;-55
2022/05/17 18:19:51;;;;;;;;;;;26.00;50.50;;;;;;6160019;28;19925;-53
2022/05/17 18:22:53;;;;;;;;;;;25.90;50.40;;;;;;6177839;28;20753;-54
2022/05/17 18:25:56;;;;;;;;;;;25.80;50.30;;;;;;6165983;28;19936;-54
2022/05/17 18:29:01;;;;;;;;;;;25.80;50.30;;;;;;6169989;28;20039;-56
2022/05/17 18:32:06;;;;;;;;;;;25.90;50.30;;;;;;6175319;28;19936;-52
2022/05/17 18:35:09;;;;;;;;;;;26.00;50.40;;;;;;6151232;28;20426;-54
2022/05/17 18:38:11;;;;;;;;;;;26.10;50.40;;;;;;6121261;28;21221;-54